createdAt,value
2019-01-13T00:02:07.354Z,100.00
2019-01-13T00:12:07.451Z,100.00
2019-01-13T00:22:07.379Z,100.00
2019-01-13T00:32:07.291Z,100.00
2019-01-13T00:42:07.639Z,100.00
2019-01-13T00:52:07.305Z,100.00
2019-01-13T01:02:07.370Z,100.00
2019-01-13T01:12:07.360Z,100.00
2019-01-13T01:22:07.349Z,100.00
2019-01-13T01:32:07.296Z,100.00
2019-01-13T01:42:07.270Z,100.00
2019-01-13T01:52:07.283Z,100.00
2019-01-13T02:02:07.386Z,100.00
2019-01-13T02:12:07.324Z,100.00
2019-01-13T02:22:07.282Z,100.00
2019-01-13T02:32:07.294Z,100.00
2019-01-13T02:42:07.521Z,100.00
2019-01-13T02:52:07.257Z,100.00
2019-01-13T03:02:07.345Z,100.00
2019-01-13T03:12:07.406Z,100.00
2019-01-13T03:22:07.270Z,100.00
2019-01-13T03:32:07.387Z,100.00
2019-01-13T03:42:07.377Z,100.00
2019-01-13T03:52:07.305Z,100.00
2019-01-13T04:02:07.343Z,100.00
2019-01-13T04:12:07.283Z,100.00
2019-01-13T04:22:07.326Z,100.00
2019-01-13T04:32:07.338Z,100.00
2019-01-13T04:42:07.274Z,100.00
2019-01-13T04:52:07.304Z,100.00
2019-01-13T05:02:07.300Z,100.00
2019-01-13T05:12:07.301Z,100.00
2019-01-13T05:22:07.268Z,100.00
2019-01-13T05:32:07.239Z,100.00
2019-01-13T05:42:07.306Z,100.00
2019-01-13T05:52:07.312Z,100.00
2019-01-13T06:02:07.281Z,100.00
2019-01-13T06:12:07.263Z,100.00
2019-01-13T06:22:07.495Z,100.00
2019-01-13T06:32:07.217Z,100.00
2019-01-13T06:42:07.988Z,100.00
2019-01-13T06:52:07.245Z,100.00
2019-01-13T07:02:07.307Z,100.00
2019-01-13T07:12:07.582Z,100.00
2019-01-13T07:22:07.234Z,100.00
2019-01-13T07:32:10.879Z,100.00
2019-01-13T07:42:07.653Z,100.00
2019-01-13T07:52:07.305Z,100.00
2019-01-13T08:02:07.287Z,100.00
2019-01-13T08:12:07.252Z,100.00
2019-01-13T08:22:07.282Z,100.00
2019-01-13T08:32:07.253Z,100.00
2019-01-13T08:42:10.388Z,100.00
2019-01-13T08:52:07.217Z,100.00
2019-01-13T09:02:07.222Z,100.00
2019-01-13T09:12:07.284Z,100.00
2019-01-13T09:22:07.246Z,100.00
2019-01-13T09:32:07.200Z,100.00
2019-01-13T09:42:07.254Z,100.00
2019-01-13T09:52:07.208Z,100.00
2019-01-13T10:02:07.258Z,100.00
2019-01-13T10:12:07.325Z,100.00
2019-01-13T10:22:07.236Z,100.00
2019-01-13T10:32:07.187Z,100.00
2019-01-13T10:42:07.251Z,100.00
2019-01-13T10:52:07.461Z,100.00
2019-01-13T11:02:07.247Z,99.89
2019-01-13T11:12:14.516Z,99.79
2019-01-13T11:22:07.183Z,100.00
2019-01-13T11:32:07.210Z,100.00
2019-01-13T11:42:07.522Z,100.00
2019-01-13T11:52:07.217Z,100.00
2019-01-13T12:02:07.255Z,100.00
2019-01-13T12:12:07.317Z,100.00
2019-01-13T12:22:07.212Z,100.00
2019-01-13T12:32:07.205Z,100.00
2019-01-13T12:42:07.242Z,100.00
2019-01-13T12:52:07.207Z,100.00
2019-01-13T13:02:07.223Z,100.00
2019-01-13T13:12:07.636Z,100.00
2019-01-13T13:22:07.240Z,100.00
2019-01-13T13:32:07.347Z,100.00
2019-01-13T13:42:07.270Z,100.00
2019-01-13T13:52:07.430Z,100.00
2019-01-13T14:02:07.235Z,100.00
2019-01-13T14:12:07.269Z,100.00
2019-01-13T14:22:07.203Z,100.00
2019-01-13T14:32:07.126Z,100.00
2019-01-13T14:42:07.184Z,100.00
2019-01-13T14:52:07.111Z,100.00
2019-01-13T15:02:07.225Z,100.00
2019-01-13T15:12:07.469Z,100.00
2019-01-13T15:22:07.387Z,100.00
2019-01-13T15:32:07.253Z,100.00
2019-01-13T15:42:07.534Z,100.00
2019-01-13T15:52:07.139Z,100.00
2019-01-13T16:02:07.208Z,100.00
2019-01-13T16:12:07.199Z,100.00
2019-01-13T16:22:07.157Z,100.00
2019-01-13T16:32:07.234Z,100.00
2019-01-13T16:42:07.187Z,100.00
2019-01-13T16:52:07.122Z,100.00
2019-01-13T17:02:07.266Z,100.00
2019-01-13T17:12:07.230Z,100.00
2019-01-13T17:22:07.677Z,99.97
2019-01-13T17:32:07.099Z,99.43
2019-01-13T17:42:07.476Z,98.04
2019-01-13T17:52:07.214Z,98.08
2019-01-13T18:02:07.124Z,96.88
2019-01-13T18:12:07.177Z,96.86
2019-01-13T18:22:07.114Z,95.67
2019-01-13T18:32:07.161Z,96.22
2019-01-13T18:42:07.165Z,95.85
2019-01-13T18:52:07.178Z,95.44
2019-01-13T19:02:07.156Z,93.49
2019-01-13T19:12:07.550Z,91.75
2019-01-13T19:22:07.239Z,94.06
2019-01-13T19:32:07.116Z,95.78
2019-01-13T19:42:07.203Z,95.21
2019-01-13T19:52:07.136Z,94.52
2019-01-13T20:02:07.157Z,96.09
2019-01-13T20:12:07.134Z,95.70
2019-01-13T20:22:07.190Z,92.92
2019-01-13T20:32:07.414Z,92.36
2019-01-13T20:42:07.191Z,93.78
2019-01-13T20:52:07.200Z,95.24
2019-01-13T21:02:07.080Z,96.66
2019-01-13T21:12:07.138Z,97.89
2019-01-13T21:22:07.158Z,98.36
2019-01-13T21:32:07.169Z,98.84
2019-01-13T21:42:07.442Z,99.62
2019-01-13T21:52:07.210Z,100.00
2019-01-13T22:02:07.218Z,100.00
2019-01-13T22:12:07.110Z,99.29
2019-01-13T22:22:07.115Z,97.40
2019-01-13T22:32:07.153Z,95.82
2019-01-13T22:42:07.183Z,95.01
2019-01-13T22:52:07.184Z,94.91
2019-01-13T23:02:07.123Z,94.67
2019-01-13T23:12:07.126Z,93.76
2019-01-13T23:22:07.121Z,93.67
2019-01-13T23:32:07.104Z,93.56
2019-01-13T23:42:07.094Z,92.60
2019-01-13T23:52:07.317Z,92.28
